Time;durP1;ratioP1;P1;durP2;ratioP2;P2;SDS_P1;SDS_P2;PMS_P1;PMS_P2;Temp;Humidity;BMP_temperature;BMP_pressure;BME280_temperature;BME280_humidity;BME280_pressure;Samples;Min_cycle;Max_cycle;Signal;HPM_P1;HPM_P2
2021/10/07 00:01:50;;;;;;;5.50;3.73;;;12.20;99.90;;;;;;5042140;28;20518;-52
2021/10/07 00:04:16;;;;;;;5.63;3.83;;;12.20;99.90;;;;;;5042650;28;20437;-53
2021/10/07 00:06:43;;;;;;;5.67;4.03;;;12.20;99.90;;;;;;5042939;28;20583;-53
2021/10/07 00:09:10;;;;;;;5.10;4.10;;;12.10;99.90;;;;;;5042895;28;20444;-51
2021/10/07 00:11:37;;;;;;;4.33;3.63;;;12.10;99.90;;;;;;5042534;28;20448;-52
2021/10/07 00:14:05;;;;;;;5.27;4.00;;;12.00;99.90;;;;;;5041727;28;20498;-53
2021/10/07 00:16:32;;;;;;;5.97;3.97;;;12.00;99.90;;;;;;5043049;28;20452;-52
2021/10/07 00:19:00;;;;;;;7.37;4.20;;;11.90;99.90;;;;;;5043786;28;20546;-51
2021/10/07 00:21:27;;;;;;;7.30;4.77;;;11.90;99.90;;;;;;5044077;28;20517;-54
2021/10/07 00:24:05;;;;;;;6.73;4.77;;;11.90;99.90;;;;;;5042794;28;20820;-55
2021/10/07 00:26:32;;;;;;;7.93;4.37;;;11.90;99.90;;;;;;5042352;28;20464;-55
2021/10/07 00:29:03;;;;;;;6.20;4.33;;;11.80;99.90;;;;;;5042068;28;20448;-52
2021/10/07 00:31:34;;;;;;;8.67;4.37;;;11.80;99.90;;;;;;5042342;28;20432;-53
2021/10/07 00:34:15;;;;;;;8.33;5.40;;;11.80;99.90;;;;;;5041851;28;20468;-55
2021/10/07 00:36:56;;;;;;;7.93;4.60;;;11.70;99.90;;;;;;5041167;28;20503;-50
2021/10/07 00:39:22;;;;;;;7.97;4.97;;;11.70;99.90;;;;;;5042372;28;20499;-52
2021/10/07 00:41:52;;;;;;;6.33;4.17;;;11.60;99.90;;;;;;5042324;28;20864;-54
2021/10/07 00:44:20;;;;;;;6.30;4.87;;;11.60;99.90;;;;;;5042926;28;20212;-49
2021/10/07 00:46:49;;;;;;;6.17;5.07;;;11.60;99.90;;;;;;5042426;28;20472;-48
2021/10/07 00:49:18;;;;;;;5.03;4.50;;;11.60;99.90;;;;;;5041905;28;20545;-53
2021/10/07 00:51:45;;;;;;;5.80;3.87;;;11.60;99.90;;;;;;5042099;28;20456;-52
2021/10/07 00:54:14;;;;;;;5.50;4.70;;;11.50;99.90;;;;;;5043622;28;20483;-52
2021/10/07 00:56:41;;;;;;;5.63;3.97;;;11.50;99.90;;;;;;5042909;28;20498;-54
2021/10/07 00:59:10;;;;;;;5.37;4.60;;;11.50;99.90;;;;;;5042738;28;20655;-53
2021/10/07 01:01:38;;;;;;;5.33;4.80;;;11.50;99.90;;;;;;5042632;28;20456;-51
2021/10/07 01:04:05;;;;;;;5.47;4.47;;;11.40;99.90;;;;;;5043106;28;20472;-53
2021/10/07 01:06:34;;;;;;;6.27;4.50;;;11.40;99.90;;;;;;5043053;28;20551;-52
2021/10/07 01:09:02;;;;;;;6.40;4.63;;;11.40;99.90;;;;;;5042781;28;20460;-51
2021/10/07 01:11:32;;;;;;;7.10;4.97;;;11.40;99.90;;;;;;5042390;28;20440;-54
2021/10/07 01:13:59;;;;;;;6.07;5.00;;;11.40;99.90;;;;;;5042363;28;20475;-53
2021/10/07 01:16:26;;;;;;;8.33;4.87;;;11.40;99.90;;;;;;5042238;28;20456;-51
2021/10/07 01:18:53;;;;;;;9.03;5.33;;;11.30;99.90;;;;;;5042357;28;20545;-49
2021/10/07 01:21:21;;;;;;;9.20;5.70;;;11.40;99.90;;;;;;5041491;28;20671;-51
2021/10/07 01:23:50;;;;;;;9.10;5.60;;;11.30;99.90;;;;;;5042480;28;20452;-54
2021/10/07 01:26:19;;;;;;;10.63;5.20;;;11.30;99.90;;;;;;5042344;28;20471;-53
2021/10/07 01:28:49;;;;;;;7.40;5.10;;;11.30;99.90;;;;;;5041981;28;20444;-55
2021/10/07 01:31:16;;;;;;;10.57;6.10;;;11.30;99.90;;;;;;5042851;28;20464;-54
2021/10/07 01:33:43;;;;;;;6.97;5.43;;;11.20;99.90;;;;;;5041697;28;20448;-51
2021/10/07 01:36:10;;;;;;;8.13;5.37;;;11.20;99.90;;;;;;5042741;28;20623;-52
2021/10/07 01:38:38;;;;;;;7.70;5.13;;;11.20;99.90;;;;;;5042847;28;20522;-50
2021/10/07 01:41:06;;;;;;;12.00;6.77;;;11.20;99.90;;;;;;5042833;28;20526;-54
2021/10/07 01:43:33;;;;;;;7.20;5.23;;;11.20;99.90;;;;;;5042804;28;20480;-54
2021/10/07 01:45:59;;;;;;;12.23;6.10;;;11.10;99.90;;;;;;5042982;28;20455;-49
2021/10/07 01:48:27;;;;;;;6.70;5.53;;;11.20;99.90;;;;;;5047157;28;20468;-49
2021/10/07 01:50:56;;;;;;;7.93;6.10;;;11.20;99.90;;;;;;5047474;28;20498;-54
2021/10/07 01:53:22;;;;;;;7.63;4.63;;;11.20;99.90;;;;;;5046607;28;20537;-54
2021/10/07 01:55:50;;;;;;;6.13;5.50;;;11.10;99.90;;;;;;5045876;28;20510;-51
2021/10/07 01:58:17;;;;;;;6.23;4.73;;;11.00;99.90;;;;;;5046555;28;20498;-52
2021/10/07 02:00:45;;;;;;;7.70;5.93;;;11.00;99.90;;;;;;5046936;28;20448;-52
2021/10/07 02:03:12;;;;;;;7.70;5.57;;;11.00;99.90;;;;;;5046182;28;20444;-52
2021/10/07 02:05:41;;;;;;;6.40;5.10;;;10.90;99.90;;;;;;5047111;28;20476;-51
2021/10/07 02:08:08;;;;;;;11.40;4.83;;;11.00;99.90;;;;;;5046943;28;20807;-52
2021/10/07 02:10:35;;;;;;;7.50;4.57;;;10.90;99.90;;;;;;5046791;28;20475;-50
2021/10/07 02:13:03;;;;;;;10.07;5.10;;;10.90;99.90;;;;;;5046842;28;20448;-52
2021/10/07 02:15:30;;;;;;;5.37;4.83;;;10.90;99.90;;;;;;5046626;28;20468;-52
2021/10/07 02:17:56;;;;;;;7.30;4.93;;;10.90;99.90;;;;;;5046829;28;20480;-49
2021/10/07 02:20:23;;;;;;;6.23;4.97;;;10.80;99.90;;;;;;5046186;28;20521;-49
2021/10/07 02:22:49;;;;;;;7.20;5.40;;;10.90;99.90;;;;;;5047280;28;20502;-53
2021/10/07 02:25:16;;;;;;;7.27;4.80;;;10.90;99.90;;;;;;5047245;28;20510;-52
2021/10/07 02:27:46;;;;;;;6.53;4.80;;;10.80;99.90;;;;;;5046720;28;20941;-54
2021/10/07 02:30:19;;;;;;;8.63;4.83;;;10.80;99.90;;;;;;5047073;28;20489;-51
2021/10/07 02:32:45;;;;;;;9.00;5.20;;;10.80;99.90;;;;;;5047455;28;20499;-52
2021/10/07 02:35:13;;;;;;;8.63;4.53;;;10.80;99.90;;;;;;5047199;28;20440;-51
2021/10/07 02:37:42;;;;;;;5.87;4.60;;;10.80;99.90;;;;;;5047631;28;20472;-49
2021/10/07 02:40:10;;;;;;;6.17;4.27;;;10.70;99.90;;;;;;5047682;28;20441;-52
2021/10/07 02:42:37;;;;;;;6.07;4.87;;;10.70;99.90;;;;;;5047568;28;20526;-55
2021/10/07 02:45:05;;;;;;;4.23;3.63;;;10.70;99.90;;;;;;5047405;28;20452;-50
2021/10/07 02:47:33;;;;;;;6.17;3.80;;;10.70;99.90;;;;;;5047066;28;20463;-47
2021/10/07 02:50:00;;;;;;;8.63;4.53;;;10.60;99.90;;;;;;5047367;28;20464;-51
2021/10/07 02:52:27;;;;;;;10.53;4.53;;;10.60;99.90;;;;;;5047391;28;20470;-53
2021/10/07 02:54:53;;;;;;;8.33;5.17;;;10.60;99.90;;;;;;5047348;28;20638;-52
2021/10/07 02:57:20;;;;;;;5.73;4.10;;;10.60;99.90;;;;;;5046893;28;20444;-51
2021/10/07 02:59:47;;;;;;;7.17;3.70;;;10.60;99.90;;;;;;5045817;28;20488;-53
2021/10/07 03:02:15;;;;;;;7.87;4.67;;;10.60;99.90;;;;;;5046335;28;20432;-49
2021/10/07 03:04:43;;;;;;;6.57;5.00;;;10.60;99.90;;;;;;5046577;28;20949;-50
2021/10/07 03:07:11;;;;;;;10.17;5.70;;;10.60;99.90;;;;;;5046404;28;20461;-54
2021/10/07 03:09:38;;;;;;;6.20;4.73;;;10.60;99.90;;;;;;5046785;28;20444;-53
2021/10/07 03:12:06;;;;;;;4.40;3.90;;;10.60;99.90;;;;;;5047060;28;20494;-53
2021/10/07 03:14:33;;;;;;;5.30;3.93;;;10.50;99.90;;;;;;5047839;28;20735;-56
2021/10/07 03:17:00;;;;;;;5.47;4.63;;;10.50;99.90;;;;;;5047788;28;20479;-50
2021/10/07 03:19:26;;;;;;;5.53;4.00;;;10.40;99.90;;;;;;5047320;28;20484;-50
2021/10/07 03:21:54;;;;;;;5.67;4.40;;;10.40;99.90;;;;;;5047455;28;20471;-49
2021/10/07 03:24:21;;;;;;;4.10;3.70;;;10.40;99.90;;;;;;5046443;28;20456;-50
2021/10/07 03:26:48;;;;;;;8.20;4.50;;;10.40;99.90;;;;;;5046843;28;20840;-48
2021/10/07 03:29:15;;;;;;;5.00;4.10;;;10.30;99.90;;;;;;5047299;28;20436;-51
2021/10/07 03:31:41;;;;;;;7.03;4.30;;;10.30;99.90;;;;;;5046625;28;20506;-53
2021/10/07 03:34:08;;;;;;;9.07;4.17;;;10.30;99.90;;;;;;5046381;28;20460;-51
2021/10/07 03:36:35;;;;;;;9.40;3.77;;;10.30;99.90;;;;;;5047527;28;20506;-54
2021/10/07 03:39:03;;;;;;;9.20;4.00;;;10.30;99.90;;;;;;5047003;28;20488;-49
2021/10/07 03:41:32;;;;;;;7.17;4.73;;;10.30;99.90;;;;;;5046381;28;20455;-54
2021/10/07 03:43:59;;;;;;;8.57;3.60;;;10.20;99.90;;;;;;5046785;28;20475;-49
2021/10/07 03:46:26;;;;;;;11.07;4.93;;;10.20;99.90;;;;;;5046260;28;20932;-50
2021/10/07 03:48:55;;;;;;;7.67;4.30;;;10.30;99.90;;;;;;5046832;28;20440;-49
2021/10/07 03:51:22;;;;;;;7.43;3.97;;;10.20;99.90;;;;;;5046946;28;20464;-55
2021/10/07 03:53:49;;;;;;;5.13;3.80;;;10.20;99.90;;;;;;5045978;28;20929;-53
2021/10/07 03:56:17;;;;;;;6.47;4.37;;;10.20;99.90;;;;;;5046287;28;20537;-50
2021/10/07 03:58:44;;;;;;;5.13;3.67;;;10.30;99.90;;;;;;5046258;28;20519;-52
2021/10/07 04:01:10;;;;;;;5.30;3.40;;;10.30;99.90;;;;;;5046964;28;20577;-54
2021/10/07 04:03:37;;;;;;;4.87;4.07;;;10.30;99.90;;;;;;5047209;28;20930;-55
2021/10/07 04:06:04;;;;;;;7.40;4.40;;;10.30;99.90;;;;;;5046881;28;20471;-49
2021/10/07 04:08:30;;;;;;;9.77;4.53;;;10.30;99.90;;;;;;5047097;28;20453;-52
2021/10/07 04:10:57;;;;;;;5.73;4.20;;;10.30;99.90;;;;;;5045657;28;20562;-53
2021/10/07 04:13:26;;;;;;;7.17;4.00;;;10.30;99.90;;;;;;5047158;28;20468;-49
2021/10/07 04:15:53;;;;;;;6.73;3.37;;;10.30;99.90;;;;;;5047032;28;20486;-54
2021/10/07 04:18:20;;;;;;;5.33;4.40;;;10.30;99.90;;;;;;5046542;28;20987;-55
2021/10/07 04:20:49;;;;;;;8.60;3.83;;;10.30;99.90;;;;;;5046960;28;20486;-52
2021/10/07 04:23:17;;;;;;;6.00;4.03;;;10.20;99.90;;;;;;5046755;28;20468;-51
2021/10/07 04:25:43;;;;;;;10.57;3.87;;;10.20;99.90;;;;;;5046284;28;20429;-53
2021/10/07 04:28:10;;;;;;;4.67;3.87;;;10.20;99.90;;;;;;5046900;28;20444;-53
2021/10/07 04:30:39;;;;;;;6.33;3.90;;;10.10;99.90;;;;;;5047257;28;20447;-51
2021/10/07 04:33:09;;;;;;;6.83;4.50;;;10.10;99.90;;;;;;5047167;28;20468;-50
2021/10/07 04:35:36;;;;;;;5.00;3.97;;;10.00;99.90;;;;;;5084413;23;20532;-52
2021/10/07 04:38:03;;;;;;;7.20;4.00;;;10.10;99.90;;;;;;5043028;28;20535;-51
2021/10/07 04:40:30;;;;;;;3.83;3.20;;;10.10;99.90;;;;;;5039075;28;20591;-58
2021/10/07 04:42:59;;;;;;;4.90;3.93;;;10.10;99.90;;;;;;5053041;23;20561;-46
2021/10/07 04:45:26;;;;;;;7.27;4.27;;;10.10;99.90;;;;;;5045870;28;20460;-49
2021/10/07 04:47:55;;;;;;;5.77;4.63;;;10.10;99.90;;;;;;5037491;23;21062;-52
2021/10/07 04:50:21;;;;;;;7.30;4.07;;;10.10;99.90;;;;;;5026472;28;20495;-52
2021/10/07 04:52:48;;;;;;;6.03;4.77;;;10.10;99.90;;;;;;5033737;23;20503;-52
2021/10/07 04:55:15;;;;;;;6.13;4.07;;;10.00;99.90;;;;;;5025980;28;20505;-51
2021/10/07 04:57:41;;;;;;;5.33;4.53;;;10.10;99.90;;;;;;5033624;23;20489;-55
2021/10/07 05:00:10;;;;;;;4.60;3.47;;;10.00;99.90;;;;;;5023542;28;20472;-53
2021/10/07 05:02:37;;;;;;;6.47;4.17;;;10.00;99.90;;;;;;5025399;23;20558;-51
2021/10/07 05:05:06;;;;;;;5.77;3.80;;;10.00;99.90;;;;;;5019255;28;20456;-53
2021/10/07 05:07:32;;;;;;;6.90;4.57;;;10.00;99.90;;;;;;5026097;23;20550;-50
2021/10/07 05:09:59;;;;;;;5.53;4.57;;;9.90;99.90;;;;;;5017229;28;20512;-52
2021/10/07 05:12:26;;;;;;;5.27;4.10;;;9.90;99.90;;;;;;5025532;23;20574;-54
2021/10/07 05:14:52;;;;;;;6.63;4.20;;;9.90;99.90;;;;;;5022851;28;20469;-51
2021/10/07 05:17:19;;;;;;;6.00;4.63;;;9.90;99.90;;;;;;5029759;23;20449;-51
2021/10/07 05:19:46;;;;;;;4.33;3.53;;;9.90;99.90;;;;;;5002474;28;20544;-52
2021/10/07 05:24:39;;;;;;;9.23;4.00;;;9.90;99.90;;;;;;5031401;23;20481;-49
2021/10/07 05:27:07;;;;;;;4.23;3.70;;;9.90;99.90;;;;;;5029432;28;20607;-52
2021/10/07 05:29:33;;;;;;;6.90;3.70;;;9.90;99.90;;;;;;5053430;23;20491;-49
2021/10/07 05:32:00;;;;;;;6.33;4.77;;;9.90;99.90;;;;;;5050310;28;20444;-54
2021/10/07 05:34:27;;;;;;;9.70;3.97;;;9.90;99.90;;;;;;5043271;23;20480;-52
2021/10/07 05:36:59;;;;;;;6.97;4.30;;;9.90;99.90;;;;;;5029977;28;20532;-49
2021/10/07 05:39:34;;;;;;;6.70;4.80;;;10.00;99.90;;;;;;5067132;23;20496;-58
2021/10/07 05:42:02;;;;;;;6.47;4.33;;;10.00;99.90;;;;;;5035407;28;20461;-54
2021/10/07 05:44:29;;;;;;;5.80;4.83;;;10.00;99.90;;;;;;5053503;23;20976;-56
2021/10/07 05:46:56;;;;;;;7.73;4.60;;;10.00;99.90;;;;;;5054521;28;20468;-51
2021/10/07 05:49:34;;;;;;;7.30;4.67;;;10.00;99.90;;;;;;5061845;23;20488;-52
2021/10/07 05:52:01;;;;;;;5.33;3.73;;;10.00;99.90;;;;;;5054835;28;20436;-52
2021/10/07 05:54:28;;;;;;;8.33;3.50;;;10.00;99.90;;;;;;5060811;23;20495;-60
2021/10/07 05:56:56;;;;;;;8.10;5.17;;;10.00;99.90;;;;;;5054302;28;20482;-52
2021/10/07 05:59:24;;;;;;;5.13;4.70;;;10.10;99.90;;;;;;5058547;23;20487;-52
2021/10/07 06:01:52;;;;;;;4.63;4.13;;;10.10;99.90;;;;;;5043891;28;20452;-56
2021/10/07 06:04:18;;;;;;;5.77;4.40;;;10.10;99.90;;;;;;5055969;23;20956;-52
2021/10/07 06:06:45;;;;;;;8.10;4.17;;;10.20;99.90;;;;;;5043531;28;20436;-52
2021/10/07 06:09:12;;;;;;;6.00;4.50;;;10.20;99.90;;;;;;5043582;28;20494;-49
2021/10/07 06:11:39;;;;;;;4.03;3.43;;;10.30;99.90;;;;;;5043784;28;20487;-50
2021/10/07 06:14:06;;;;;;;5.13;3.80;;;10.30;99.90;;;;;;5044038;28;20448;-53
2021/10/07 06:16:38;;;;;;;5.40;3.00;;;10.30;99.90;;;;;;5044537;28;20440;-51
2021/10/07 06:19:08;;;;;;;8.53;5.53;;;10.30;99.90;;;;;;5044838;28;20562;-53
2021/10/07 06:21:34;;;;;;;8.13;4.43;;;10.40;99.90;;;;;;5045440;28;20813;-52
2021/10/07 06:24:01;;;;;;;4.97;4.43;;;10.50;99.90;;;;;;5045360;28;20456;-54
2021/10/07 06:26:28;;;;;;;9.17;4.43;;;10.50;99.90;;;;;;5044469;28;20486;-54
2021/10/07 06:28:56;;;;;;;6.47;3.80;;;10.50;99.90;;;;;;5044378;28;20506;-49
2021/10/07 06:31:23;;;;;;;6.40;4.80;;;10.60;99.90;;;;;;5043481;28;20472;-56
2021/10/07 06:33:51;;;;;;;11.63;4.47;;;10.70;99.90;;;;;;5042244;28;20449;-54
2021/10/07 06:36:18;;;;;;;7.90;4.97;;;10.70;99.90;;;;;;5043651;28;20486;-56
2021/10/07 06:38:44;;;;;;;13.70;5.37;;;10.70;99.90;;;;;;5043461;28;20503;-54
2021/10/07 06:41:11;;;;;;;7.50;4.43;;;10.80;99.90;;;;;;5043272;28;20476;-56
2021/10/07 06:43:38;;;;;;;6.77;4.57;;;10.80;99.90;;;;;;5043656;28;20452;-48
2021/10/07 06:46:04;;;;;;;6.00;4.60;;;10.80;99.90;;;;;;5043718;28;20476;-52
2021/10/07 06:48:33;;;;;;;6.43;5.17;;;10.80;99.90;;;;;;5043954;28;20498;-56
2021/10/07 06:51:02;;;;;;;11.17;5.67;;;10.90;99.90;;;;;;5042637;28;20484;-56
2021/10/07 06:53:29;;;;;;;5.70;4.10;;;10.90;99.90;;;;;;5041804;28;20440;-50
2021/10/07 06:55:56;;;;;;;5.67;4.03;;;11.00;99.90;;;;;;5042324;28;20464;-55
2021/10/07 06:58:23;;;;;;;9.23;4.87;;;11.00;99.90;;;;;;5043642;28;20820;-55
2021/10/07 07:00:49;;;;;;;7.17;4.63;;;11.10;99.90;;;;;;5042075;28;20488;-52
2021/10/07 07:03:16;;;;;;;9.53;6.00;;;11.10;99.90;;;;;;5042461;28;20448;-55
2021/10/07 07:05:43;;;;;;;5.97;4.70;;;11.20;99.90;;;;;;5041590;28;20534;-55
2021/10/07 07:08:11;;;;;;;7.70;5.07;;;11.20;99.90;;;;;;5041358;28;20452;-53
2021/10/07 07:10:39;;;;;;;8.50;4.60;;;11.40;99.90;;;;;;5042026;28;20499;-56
2021/10/07 07:13:07;;;;;;;7.60;5.03;;;11.50;99.90;;;;;;5042167;28;20448;-56
2021/10/07 07:15:37;;;;;;;8.90;5.57;;;11.60;99.90;;;;;;5041820;28;20538;-54
2021/10/07 07:18:03;;;;;;;7.40;4.93;;;11.60;99.90;;;;;;5041746;28;20924;-53
2021/10/07 07:20:30;;;;;;;7.10;5.20;;;11.70;99.90;;;;;;5041151;28;21042;-55
2021/10/07 07:22:57;;;;;;;7.20;4.97;;;11.80;99.90;;;;;;5041467;28;20459;-55
2021/10/07 07:25:25;;;;;;;8.70;5.30;;;11.80;99.90;;;;;;5041524;28;20534;-53
2021/10/07 07:27:51;;;;;;;6.40;4.50;;;11.80;99.90;;;;;;5041782;28;20459;-54
2021/10/07 07:30:18;;;;;;;7.10;5.13;;;11.90;99.90;;;;;;5041106;28;20440;-58
2021/10/07 07:32:45;;;;;;;9.40;6.10;;;12.00;99.90;;;;;;5040595;28;20439;-55
2021/10/07 07:35:12;;;;;;;6.77;4.73;;;12.10;99.90;;;;;;5041086;28;20483;-53
2021/10/07 07:37:39;;;;;;;8.60;5.80;;;12.20;99.90;;;;;;5040555;28;20432;-53
2021/10/07 07:40:07;;;;;;;9.70;5.50;;;12.40;99.90;;;;;;5040542;28;20952;-56
2021/10/07 07:42:35;;;;;;;8.33;5.83;;;12.50;99.90;;;;;;5039929;28;20452;-57
2021/10/07 07:45:03;;;;;;;9.33;5.20;;;12.50;99.90;;;;;;5039933;28;20918;-56
2021/10/07 07:47:31;;;;;;;10.20;6.30;;;12.60;99.90;;;;;;5040173;28;20448;-52
2021/10/07 07:49:58;;;;;;;6.67;5.30;;;12.70;99.90;;;;;;5040484;28;20440;-54
2021/10/07 07:52:25;;;;;;;6.57;5.60;;;12.70;99.90;;;;;;5039644;28;20472;-54
2021/10/07 07:54:52;;;;;;;10.87;6.00;;;12.80;99.90;;;;;;5039934;28;20448;-55
2021/10/07 07:57:18;;;;;;;9.40;6.57;;;12.90;99.90;;;;;;5039861;28;20455;-53
2021/10/07 07:59:46;;;;;;;11.57;7.20;;;13.00;99.90;;;;;;5039941;28;20837;-52
2021/10/07 08:02:15;;;;;;;8.53;5.20;;;13.10;99.90;;;;;;5039443;28;20448;-55
2021/10/07 08:04:44;;;;;;;8.60;5.43;;;13.20;99.90;;;;;;5039478;28;20460;-57
2021/10/07 08:07:13;;;;;;;14.43;6.70;;;13.30;99.90;;;;;;5039395;28;20835;-53
2021/10/07 08:09:43;;;;;;;9.37;7.10;;;13.30;99.90;;;;;;5039106;28;20444;-50
2021/10/07 08:12:12;;;;;;;8.37;6.10;;;13.40;99.90;;;;;;5040297;28;20468;-56
2021/10/07 08:14:39;;;;;;;9.23;5.87;;;13.50;99.90;;;;;;5040930;28;20483;-56
2021/10/07 08:17:07;;;;;;;8.37;5.97;;;13.50;99.90;;;;;;5039898;28;20932;-52
2021/10/07 08:19:34;;;;;;;7.73;6.60;;;13.60;99.90;;;;;;5040527;28;20452;-55
2021/10/07 08:22:01;;;;;;;7.30;5.90;;;13.70;99.90;;;;;;5040560;28;20468;-55
2021/10/07 08:24:27;;;;;;;7.10;6.40;;;13.70;99.90;;;;;;5039003;28;20905;-55
2021/10/07 08:26:54;;;;;;;14.57;6.40;;;13.90;99.90;;;;;;5039238;28;20476;-58
2021/10/07 08:29:21;;;;;;;25.23;14.90;;;13.90;99.90;;;;;;5038608;28;20460;-55
2021/10/07 08:31:50;;;;;;;11.53;8.37;;;14.00;99.90;;;;;;5039778;28;20495;-54
2021/10/07 08:34:18;;;;;;;10.37;6.10;;;14.20;99.90;;;;;;5039316;28;20514;-53
2021/10/07 08:36:46;;;;;;;8.33;5.90;;;15.00;99.90;;;;;;5038599;28;20842;-56
2021/10/07 08:39:14;;;;;;;8.03;5.13;;;16.60;99.90;;;;;;5036918;28;20483;-54
2021/10/07 08:41:41;;;;;;;5.80;5.23;;;18.70;99.90;;;;;;5036466;28;20491;-57
2021/10/07 08:44:08;;;;;;;3.73;3.03;;;20.70;99.90;;;;;;5035943;28;20466;-54
2021/10/07 08:46:35;;;;;;;5.67;3.87;;;22.60;99.90;;;;;;5035034;28;20838;-56
2021/10/07 08:49:02;;;;;;;5.10;3.23;;;24.40;99.90;;;;;;5035163;28;20515;-56
2021/10/07 08:51:32;;;;;;;3.57;3.23;;;26.10;91.00;;;;;;5034785;28;20473;-54
2021/10/07 08:53:59;;;;;;;4.40;3.30;;;27.60;77.80;;;;;;5034619;28;20518;-56
2021/10/07 08:56:25;;;;;;;3.00;2.80;;;28.60;68.80;;;;;;5034492;28;20482;-57
2021/10/07 08:58:52;;;;;;;5.30;3.40;;;29.50;62.80;;;;;;5038858;28;20488;-55
2021/10/07 09:01:37;;;;;;;5.17;4.67;;;30.10;58.50;;;;;;5038491;28;20492;-51
2021/10/07 09:04:20;;;;;;;5.50;4.23;;;30.70;56.30;;;;;;5038449;28;20530;-56
2021/10/07 09:06:49;;;;;;;4.33;3.87;;;31.50;54.40;;;;;;5038648;28;20962;-58
2021/10/07 09:09:17;;;;;;;4.97;3.97;;;31.20;52.20;;;;;;5038292;28;20448;-58
2021/10/07 09:11:50;;;;;;;6.73;4.33;;;30.10;53.20;;;;;;5038457;28;20571;-58
2021/10/07 09:14:18;;;;;;;5.23;4.00;;;28.60;54.30;;;;;;5038485;28;20531;-55
2021/10/07 09:16:47;;;;;;;8.20;6.63;;;27.20;56.30;;;;;;5038266;28;20537;-58
2021/10/07 09:19:18;;;;;;;4.27;3.97;;;26.00;58.60;;;;;;5038314;28;20444;-53
2021/10/07 09:21:49;;;;;;;4.40;3.70;;;24.70;62.80;;;;;;5038451;28;20510;-52
2021/10/07 09:24:30;;;;;;;4.33;3.37;;;23.70;66.00;;;;;;5038358;28;20455;-51
2021/10/07 09:27:00;;;;;;;5.00;3.40;;;23.50;69.30;;;;;;5038780;28;20617;-56
2021/10/07 09:29:37;;;;;;;4.27;3.37;;;24.10;69.50;;;;;;5038693;28;20527;-58
2021/10/07 09:32:05;;;;;;;4.70;3.77;;;24.80;68.30;;;;;;5038799;28;20486;-58
2021/10/07 09:34:44;;;;;;;4.23;3.30;;;25.60;66.20;;;;;;5038397;28;20448;-57
2021/10/07 09:37:28;;;;;;;6.43;3.93;;;26.60;64.00;;;;;;5038412;28;20464;-58
2021/10/07 09:39:56;;;;;;;4.57;3.07;;;27.50;61.20;;;;;;5037994;28;20431;-55
2021/10/07 09:42:26;;;;;;;3.57;3.13;;;28.50;57.80;;;;;;5037808;28;20479;-57
2021/10/07 09:45:11;;;;;;;2.50;2.30;;;29.30;55.90;;;;;;5038301;28;20440;-52
2021/10/07 09:47:40;;;;;;;2.97;2.50;;;30.10;53.40;;;;;;5037818;28;20478;-55
2021/10/07 09:50:26;;;;;;;4.93;2.97;;;30.30;52.50;;;;;;5037764;28;20460;-53
2021/10/07 09:53:05;;;;;;;3.23;2.93;;;30.30;53.30;;;;;;5038026;28;20789;-61
2021/10/07 09:55:35;;;;;;;4.17;2.40;;;30.10;53.20;;;;;;5037600;28;20424;-56
2021/10/07 09:58:04;;;;;;;4.97;2.90;;;30.00;54.60;;;;;;5037486;28;20440;-58
2021/10/07 10:00:35;;;;;;;2.90;2.60;;;29.70;54.40;;;;;;5037211;28;20816;-57
2021/10/07 10:03:02;;;;;;;8.70;3.70;;;29.40;54.00;;;;;;5037745;28;20856;-57
2021/10/07 10:05:34;;;;;;;5.83;2.73;;;29.30;55.00;;;;;;5037505;28;20467;-57
2021/10/07 10:08:03;;;;;;;2.83;2.10;;;29.10;53.00;;;;;;5037451;28;20480;-57
2021/10/07 10:10:29;;;;;;;6.00;2.47;;;29.20;53.80;;;;;;5037416;28;20451;-56
2021/10/07 10:12:56;;;;;;;3.47;2.80;;;29.20;55.70;;;;;;5037194;28;20983;-54
2021/10/07 10:15:23;;;;;;;7.67;3.00;;;29.10;54.40;;;;;;5037440;28;20514;-56
2021/10/07 10:17:51;;;;;;;11.30;2.83;;;28.90;54.70;;;;;;5037343;28;20499;-57
2021/10/07 10:20:21;;;;;;;6.53;3.00;;;28.90;54.00;;;;;;5037414;28;20518;-53
2021/10/07 10:22:52;;;;;;;2.93;2.63;;;28.70;53.50;;;;;;5036892;28;20472;-56
2021/10/07 10:25:23;;;;;;;6.10;3.10;;;28.70;55.30;;;;;;5036950;28;20504;-57
2021/10/07 10:27:53;;;;;;;3.70;2.90;;;28.60;54.30;;;;;;5036913;28;20499;-57
2021/10/07 10:30:29;;;;;;;4.37;2.93;;;28.50;55.70;;;;;;5037047;28;20483;-61
2021/10/07 10:32:58;;;;;;;4.23;2.20;;;28.30;55.40;;;;;;5036984;28;20476;-58
2021/10/07 10:35:38;;;;;;;2.73;2.50;;;28.00;55.50;;;;;;5037089;28;20451;-58
2021/10/07 10:38:07;;;;;;;6.40;3.00;;;27.80;57.20;;;;;;5037155;28;20514;-58
2021/10/07 10:40:36;;;;;;;5.40;4.90;;;27.40;57.50;;;;;;5036737;28;20480;-55
2021/10/07 10:43:30;;;;;;;4.60;3.43;;;27.20;57.90;;;;;;5037017;28;20526;-56
2021/10/07 10:46:15;;;;;;;5.53;2.97;;;27.00;57.60;;;;;;5037127;28;20524;-55
2021/10/07 10:49:00;;;;;;;2.23;2.00;;;26.60;57.80;;;;;;5037657;28;20456;-55
2021/10/07 10:51:32;;;;;;;3.30;2.47;;;26.30;57.80;;;;;;5036312;28;20503;-60
2021/10/07 10:54:01;;;;;;;3.47;2.07;;;25.90;58.30;;;;;;5038156;28;20428;-60
2021/10/07 10:56:33;;;;;;;5.47;3.60;;;25.60;59.00;;;;;;5038303;28;21071;-53
2021/10/07 10:59:21;;;;;;;3.50;2.43;;;25.10;61.30;;;;;;5038233;28;20439;-60
2021/10/07 11:02:21;;;;;;;2.77;2.10;;;24.60;60.00;;;;;;5037300;28;20519;-55
2021/10/07 11:04:49;;;;;;;5.77;2.03;;;24.30;60.40;;;;;;5037123;28;20455;-54
2021/10/07 11:07:16;;;;;;;4.27;2.47;;;23.80;63.30;;;;;;5036797;28;20463;-56
2021/10/07 11:10:01;;;;;;;2.87;2.10;;;23.40;64.50;;;;;;5037160;28;20885;-55
2021/10/07 11:12:41;;;;;;;4.07;2.33;;;23.00;65.80;;;;;;5037061;28;20455;-56
2021/10/07 11:15:09;;;;;;;4.23;2.43;;;22.60;67.30;;;;;;5037153;28;20448;-58
2021/10/07 11:17:36;;;;;;;9.53;2.70;;;22.30;68.00;;;;;;5036896;28;20468;-57
2021/10/07 11:20:04;;;;;;;4.30;2.53;;;22.10;70.30;;;;;;5036557;28;20452;-55
2021/10/07 11:22:30;;;;;;;6.83;3.20;;;21.80;69.90;;;;;;5037187;28;20550;-56
2021/10/07 11:24:58;;;;;;;4.17;2.30;;;21.60;69.20;;;;;;5036966;28;20452;-54
2021/10/07 11:27:35;;;;;;;3.40;2.83;;;21.40;68.30;;;;;;5037009;28;20491;-56
2021/10/07 11:30:05;;;;;;;3.33;2.80;;;21.30;70.30;;;;;;5037131;28;20456;-57
2021/10/07 11:32:32;;;;;;;3.07;2.20;;;21.10;70.10;;;;;;5037179;28;20594;-54
2021/10/07 11:35:01;;;;;;;2.00;1.80;;;20.90;70.90;;;;;;5037440;28;20444;-57
2021/10/07 11:37:42;;;;;;;3.20;1.93;;;20.80;71.20;;;;;;5037396;28;20525;-54
2021/10/07 11:40:21;;;;;;;2.60;2.37;;;20.70;72.00;;;;;;5037365;28;20428;-58
2021/10/07 11:42:49;;;;;;;2.97;2.47;;;20.60;73.50;;;;;;5037437;28;20503;-55
2021/10/07 11:45:21;;;;;;;4.77;2.77;;;20.50;74.80;;;;;;5037292;28;20460;-52
2021/10/07 11:47:49;;;;;;;3.50;2.30;;;20.50;74.70;;;;;;5036976;28;20514;-57
2021/10/07 11:50:18;;;;;;;3.20;2.57;;;20.40;74.70;;;;;;5037050;28;20460;-55
2021/10/07 11:52:45;;;;;;;4.63;3.20;;;20.40;75.90;;;;;;5037408;28;20487;-56
2021/10/07 11:55:13;;;;;;;5.43;2.70;;;20.30;75.50;;;;;;5038364;28;20808;-56
2021/10/07 11:57:49;;;;;;;3.67;2.60;;;20.30;76.60;;;;;;5037957;28;20828;-55
2021/10/07 12:00:31;;;;;;;7.67;3.40;;;20.30;78.20;;;;;;5037771;28;20447;-52
2021/10/07 12:03:10;;;;;;;4.77;3.13;;;20.30;78.50;;;;;;5037505;28;20498;-54
2021/10/07 12:05:37;;;;;;;6.90;3.00;;;20.30;78.90;;;;;;5037227;28;20927;-53
2021/10/07 12:08:05;;;;;;;3.13;2.43;;;20.40;78.50;;;;;;5036607;28;20521;-54
2021/10/07 12:10:37;;;;;;;2.60;2.40;;;20.40;79.00;;;;;;5036701;28;20456;-56
2021/10/07 12:13:13;;;;;;;3.47;3.17;;;20.40;79.20;;;;;;5036836;28;20769;-50
2021/10/07 12:15:43;;;;;;;4.80;3.07;;;20.40;81.00;;;;;;5037278;28;20432;-55
2021/10/07 12:18:10;;;;;;;4.77;3.00;;;20.50;80.00;;;;;;5036688;28;20468;-54
2021/10/07 12:20:38;;;;;;;4.43;2.60;;;20.40;79.40;;;;;;5036795;28;20452;-56
2021/10/07 12:23:07;;;;;;;3.60;2.40;;;20.40;79.30;;;;;;5036550;28;20484;-56
2021/10/07 12:25:54;;;;;;;3.90;2.80;;;20.30;78.30;;;;;;5036925;28;20448;-53
2021/10/07 12:28:22;;;;;;;5.60;2.47;;;20.30;79.30;;;;;;5036894;28;20476;-55
2021/10/07 12:30:55;;;;;;;3.63;2.17;;;20.40;79.80;;;;;;5036403;28;20444;-57
2021/10/07 12:33:22;;;;;;;7.17;2.60;;;20.40;79.20;;;;;;5036021;28;20518;-51
2021/10/07 12:36:01;;;;;;;4.30;2.70;;;20.50;80.00;;;;;;5036649;28;20456;-50
2021/10/07 12:38:29;;;;;;;2.10;1.87;;;20.50;80.20;;;;;;5036941;28;20837;-50
2021/10/07 12:40:59;;;;;;;4.50;3.70;;;20.60;80.50;;;;;;5036458;28;20455;-51
2021/10/07 12:43:28;;;;;;;3.50;2.30;;;20.70;80.50;;;;;;5036394;28;20464;-53
2021/10/07 12:46:08;;;;;;;5.60;1.97;;;20.80;76.70;;;;;;5036405;28;20478;-54
2021/10/07 12:48:52;;;;;;;3.00;2.00;;;20.70;75.70;;;;;;5036831;28;20476;-53
2021/10/07 12:51:20;;;;;;;3.27;2.30;;;20.70;75.90;;;;;;5036539;28;20452;-56
2021/10/07 12:53:48;;;;;;;2.20;2.00;;;20.70;76.10;;;;;;5036968;28;20468;-54
2021/10/07 12:56:17;;;;;;;3.10;2.13;;;20.70;76.60;;;;;;5036070;28;20452;-54
2021/10/07 12:58:53;;;;;;;2.63;1.73;;;20.70;76.80;;;;;;5036404;28;20478;-53